Terminal Aerodrome Forecast
Issued by NWS

Home | Current Version | Previous Version | Text Only | Print | Product List | Glossary On
Versions: 1 2 3 4 5 6 7 8 9 10 11 12
000
FTUS44 KTSA 232320
TAFRVS
TAF
KRVS 232320Z 2400/2424 18010KT P6SM SKC
     FM240200 VRB03KT P6SM SKC
     FM241500 20007KT P6SM FEW060=

USA.gov is the U.S. government's official web portal to all federal, state and local government web resources and services.